sensor_id;sensor_type;location;lat;lon;timestamp;temperature;humidity
62339;DHT22;48368;53.406;6.214;2022-11-12T00:00:40;8.10;99.90
62339;DHT22;48368;53.406;6.214;2022-11-12T00:03:06;8.10;99.90
62339;DHT22;48368;53.406;6.214;2022-11-12T00:05:32;8.20;99.90
62339;DHT22;48368;53.406;6.214;2022-11-12T00:07:58;8.20;99.90
62339;DHT22;48368;53.406;6.214;2022-11-12T00:10:24;8.20;99.90
62339;DHT22;48368;53.406;6.214;2022-11-12T00:12:50;8.20;99.90
62339;DHT22;48368;53.406;6.214;2022-11-12T00:15:15;8.10;99.90
62339;DHT22;48368;53.406;6.214;2022-11-12T00:17:41;8.10;99.90
62339;DHT22;48368;53.406;6.214;2022-11-12T00:20:07;8.20;99.90
62339;DHT22;48368;53.406;6.214;2022-11-12T00:22:33;8.20;99.90
62339;DHT22;48368;53.406;6.214;2022-11-12T00:24:59;8.20;99.90
62339;DHT22;48368;53.406;6.214;2022-11-12T00:27:24;8.20;99.90
62339;DHT22;48368;53.406;6.214;2022-11-12T00:29:50;8.10;99.90
62339;DHT22;48368;53.406;6.214;2022-11-12T00:32:16;8.20;99.90
62339;DHT22;48368;53.406;6.214;2022-11-12T00:34:41;8.10;99.90
62339;DHT22;48368;53.406;6.214;2022-11-12T00:37:07;8.10;99.90
62339;DHT22;48368;53.406;6.214;2022-11-12T00:39:33;8.10;99.90
62339;DHT22;48368;53.406;6.214;2022-11-12T00:41:58;8.10;99.90
62339;DHT22;48368;53.406;6.214;2022-11-12T00:44:24;8.10;99.90
62339;DHT22;48368;53.406;6.214;2022-11-12T00:46:50;8.10;99.90
62339;DHT22;48368;53.406;6.214;2022-11-12T00:49:16;8.10;99.90
62339;DHT22;48368;53.406;6.214;2022-11-12T00:51:42;8.10;99.90
62339;DHT22;48368;53.406;6.214;2022-11-12T00:54:08;8.10;99.90
62339;DHT22;48368;53.406;6.214;2022-11-12T00:56:33;8.10;99.90
62339;DHT22;48368;53.406;6.214;2022-11-12T00:58:59;8.10;99.90
62339;DHT22;48368;53.406;6.214;2022-11-12T01:01:25;8.10;99.90
62339;DHT22;48368;53.406;6.214;2022-11-12T01:03:52;8.00;99.90
62339;DHT22;48368;53.406;6.214;2022-11-12T01:06:22;8.00;99.90
62339;DHT22;48368;53.406;6.214;2022-11-12T01:08:48;8.00;99.90
62339;DHT22;48368;53.406;6.214;2022-11-12T01:11:20;8.00;99.90
62339;DHT22;48368;53.406;6.214;2022-11-12T01:13:51;8.00;99.90
62339;DHT22;48368;53.406;6.214;2022-11-12T01:16:20;8.10;99.90
62339;DHT22;48368;53.406;6.214;2022-11-12T01:18:56;8.00;99.90
62339;DHT22;48368;53.406;6.214;2022-11-12T01:21:24;8.00;99.90
62339;DHT22;48368;53.406;6.214;2022-11-12T01:23:50;8.00;99.90
62339;DHT22;48368;53.406;6.214;2022-11-12T01:26:19;8.00;99.90
62339;DHT22;48368;53.406;6.214;2022-11-12T01:28:45;7.90;99.90
62339;DHT22;48368;53.406;6.214;2022-11-12T01:31:20;7.90;99.90
62339;DHT22;48368;53.406;6.214;2022-11-12T01:33:48;7.90;99.90
62339;DHT22;48368;53.406;6.214;2022-11-12T01:36:16;7.80;99.90
62339;DHT22;48368;53.406;6.214;2022-11-12T01:38:43;7.80;99.90
62339;DHT22;48368;53.406;6.214;2022-11-12T01:41:17;7.80;99.90
62339;DHT22;48368;53.406;6.214;2022-11-12T01:43:43;7.80;99.90
62339;DHT22;48368;53.406;6.214;2022-11-12T01:46:27;7.80;99.90
62339;DHT22;48368;53.406;6.214;2022-11-12T01:49:05;7.70;99.90
62339;DHT22;48368;53.406;6.214;2022-11-12T01:51:37;7.70;99.90
62339;DHT22;48368;53.406;6.214;2022-11-12T01:54:07;7.70;99.90
62339;DHT22;48368;53.406;6.214;2022-11-12T01:56:34;7.70;99.90
62339;DHT22;48368;53.406;6.214;2022-11-12T01:59:07;7.70;99.90
62339;DHT22;48368;53.406;6.214;2022-11-12T02:01:37;7.60;99.90
62339;DHT22;48368;53.406;6.214;2022-11-12T02:04:03;7.60;99.90
62339;DHT22;48368;53.406;6.214;2022-11-12T02:06:29;7.60;99.90
62339;DHT22;48368;53.406;6.214;2022-11-12T02:08:56;7.50;99.90
62339;DHT22;48368;53.406;6.214;2022-11-12T02:11:22;7.50;99.90
62339;DHT22;48368;53.406;6.214;2022-11-12T02:13:50;7.50;99.90
62339;DHT22;48368;53.406;6.214;2022-11-12T02:16:38;7.50;99.90
62339;DHT22;48368;53.406;6.214;2022-11-12T02:19:08;7.50;99.90
62339;DHT22;48368;53.406;6.214;2022-11-12T02:21:33;7.50;99.90
62339;DHT22;48368;53.406;6.214;2022-11-12T02:24:05;7.40;99.90
62339;DHT22;48368;53.406;6.214;2022-11-12T02:26:37;7.40;99.90
62339;DHT22;48368;53.406;6.214;2022-11-12T02:29:03;7.40;99.90
62339;DHT22;48368;53.406;6.214;2022-11-12T02:31:29;7.30;99.90
62339;DHT22;48368;53.406;6.214;2022-11-12T02:33:55;7.30;99.90
62339;DHT22;48368;53.406;6.214;2022-11-12T02:36:21;7.40;99.90
62339;DHT22;48368;53.406;6.214;2022-11-12T02:38:46;7.30;99.90
62339;DHT22;48368;53.406;6.214;2022-11-12T02:41:12;7.30;99.90
62339;DHT22;48368;53.406;6.214;2022-11-12T02:43:38;7.30;99.90
62339;DHT22;48368;53.406;6.214;2022-11-12T02:46:04;7.20;99.90
62339;DHT22;48368;53.406;6.214;2022-11-12T02:48:31;7.30;99.90
62339;DHT22;48368;53.406;6.214;2022-11-12T02:50:56;7.20;99.90
62339;DHT22;48368;53.406;6.214;2022-11-12T02:53:22;7.20;99.90
62339;DHT22;48368;53.406;6.214;2022-11-12T02:55:47;7.20;99.90
62339;DHT22;48368;53.406;6.214;2022-11-12T02:58:13;7.20;99.90
62339;DHT22;48368;53.406;6.214;2022-11-12T03:00:39;7.20;99.90
62339;DHT22;48368;53.406;6.214;2022-11-12T03:03:04;7.20;99.90
62339;DHT22;48368;53.406;6.214;2022-11-12T03:05:32;7.10;99.90
62339;DHT22;48368;53.406;6.214;2022-11-12T03:08:04;7.20;99.90
62339;DHT22;48368;53.406;6.214;2022-11-12T03:10:30;7.20;99.90
62339;DHT22;48368;53.406;6.214;2022-11-12T03:12:57;7.10;99.90
62339;DHT22;48368;53.406;6.214;2022-11-12T03:15:24;7.10;99.90
62339;DHT22;48368;53.406;6.214;2022-11-12T03:17:49;7.10;99.90
62339;DHT22;48368;53.406;6.214;2022-11-12T03:20:15;7.10;99.90
62339;DHT22;48368;53.406;6.214;2022-11-12T03:22:41;7.00;99.90
62339;DHT22;48368;53.406;6.214;2022-11-12T03:25:08;7.00;99.90
62339;DHT22;48368;53.406;6.214;2022-11-12T03:27:34;7.10;99.90
62339;DHT22;48368;53.406;6.214;2022-11-12T03:29:59;7.00;99.90
62339;DHT22;48368;53.406;6.214;2022-11-12T03:32:25;7.00;99.90
62339;DHT22;48368;53.406;6.214;2022-11-12T03:34:51;7.00;99.90
62339;DHT22;48368;53.406;6.214;2022-11-12T03:37:16;7.00;99.90
62339;DHT22;48368;53.406;6.214;2022-11-12T03:39:42;7.10;99.90
62339;DHT22;48368;53.406;6.214;2022-11-12T03:42:08;7.10;99.90
62339;DHT22;48368;53.406;6.214;2022-11-12T03:44:34;7.20;99.90
62339;DHT22;48368;53.406;6.214;2022-11-12T03:46:59;7.30;99.90
62339;DHT22;48368;53.406;6.214;2022-11-12T03:49:25;7.30;99.90
62339;DHT22;48368;53.406;6.214;2022-11-12T03:51:51;7.30;99.90
62339;DHT22;48368;53.406;6.214;2022-11-12T03:54:17;7.40;99.90
62339;DHT22;48368;53.406;6.214;2022-11-12T03:56:42;7.40;99.90
62339;DHT22;48368;53.406;6.214;2022-11-12T03:59:08;7.40;99.90
62339;DHT22;48368;53.406;6.214;2022-11-12T04:01:34;7.50;99.90
62339;DHT22;48368;53.406;6.214;2022-11-12T04:03:59;7.60;99.90
62339;DHT22;48368;53.406;6.214;2022-11-12T04:06:25;7.60;99.90
62339;DHT22;48368;53.406;6.214;2022-11-12T04:09:09;7.60;99.90
62339;DHT22;48368;53.406;6.214;2022-11-12T04:11:34;7.70;99.90
62339;DHT22;48368;53.406;6.214;2022-11-12T04:14:00;7.80;99.90
62339;DHT22;48368;53.406;6.214;2022-11-12T04:16:26;7.80;99.90
62339;DHT22;48368;53.406;6.214;2022-11-12T04:19:12;7.80;99.90
62339;DHT22;48368;53.406;6.214;2022-11-12T04:22:09;7.80;99.90
62339;DHT22;48368;53.406;6.214;2022-11-12T04:24:39;7.90;99.90
62339;DHT22;48368;53.406;6.214;2022-11-12T04:27:29;7.90;99.90
62339;DHT22;48368;53.406;6.214;2022-11-12T04:29:55;7.80;99.90
62339;DHT22;48368;53.406;6.214;2022-11-12T04:32:48;7.90;99.90
62339;DHT22;48368;53.406;6.214;2022-11-12T04:35:14;7.90;99.90
62339;DHT22;48368;53.406;6.214;2022-11-12T04:37:40;7.90;99.90
62339;DHT22;48368;53.406;6.214;2022-11-12T04:40:29;7.90;99.90
62339;DHT22;48368;53.406;6.214;2022-11-12T04:43:15;7.90;99.90
62339;DHT22;48368;53.406;6.214;2022-11-12T04:46:01;8.00;99.90
62339;DHT22;48368;53.406;6.214;2022-11-12T04:48:27;8.00;99.90
62339;DHT22;48368;53.406;6.214;2022-11-12T04:50:58;8.00;99.90
62339;DHT22;48368;53.406;6.214;2022-11-12T04:53:24;8.00;99.90
62339;DHT22;48368;53.406;6.214;2022-11-12T04:55:51;8.00;99.90
62339;DHT22;48368;53.406;6.214;2022-11-12T04:58:17;8.00;99.90
62339;DHT22;48368;53.406;6.214;2022-11-12T05:00:42;8.10;99.90
62339;DHT22;48368;53.406;6.214;2022-11-12T05:03:08;8.10;99.90
62339;DHT22;48368;53.406;6.214;2022-11-12T05:05:34;8.10;99.90
62339;DHT22;48368;53.406;6.214;2022-11-12T05:08:00;8.10;99.90
62339;DHT22;48368;53.406;6.214;2022-11-12T05:10:26;8.20;99.90
62339;DHT22;48368;53.406;6.214;2022-11-12T05:12:52;8.20;99.90
62339;DHT22;48368;53.406;6.214;2022-11-12T05:15:18;8.20;99.90
62339;DHT22;48368;53.406;6.214;2022-11-12T05:17:43;8.20;99.90
62339;DHT22;48368;53.406;6.214;2022-11-12T05:20:10;8.20;99.90
62339;DHT22;48368;53.406;6.214;2022-11-12T05:22:36;8.20;99.90
62339;DHT22;48368;53.406;6.214;2022-11-12T05:25:02;8.20;99.90
62339;DHT22;48368;53.406;6.214;2022-11-12T05:27:28;8.20;99.90
62339;DHT22;48368;53.406;6.214;2022-11-12T05:29:54;8.20;99.90
62339;DHT22;48368;53.406;6.214;2022-11-12T05:32:20;8.20;99.90
62339;DHT22;48368;53.406;6.214;2022-11-12T05:34:45;8.20;99.90
62339;DHT22;48368;53.406;6.214;2022-11-12T05:37:12;8.20;99.90
62339;DHT22;48368;53.406;6.214;2022-11-12T05:39:38;8.20;99.90
62339;DHT22;48368;53.406;6.214;2022-11-12T05:42:04;8.20;99.90
62339;DHT22;48368;53.406;6.214;2022-11-12T05:44:29;8.20;99.90
62339;DHT22;48368;53.406;6.214;2022-11-12T05:46:55;8.20;99.90
62339;DHT22;48368;53.406;6.214;2022-11-12T05:49:20;8.20;99.90
62339;DHT22;48368;53.406;6.214;2022-11-12T05:51:46;8.20;99.90
62339;DHT22;48368;53.406;6.214;2022-11-12T05:54:12;8.20;99.90
62339;DHT22;48368;53.406;6.214;2022-11-12T05:56:38;8.20;99.90
62339;DHT22;48368;53.406;6.214;2022-11-12T05:59:06;8.20;99.90
62339;DHT22;48368;53.406;6.214;2022-11-12T06:01:33;8.20;99.90
62339;DHT22;48368;53.406;6.214;2022-11-12T06:04:00;8.20;99.90
62339;DHT22;48368;53.406;6.214;2022-11-12T06:06:26;8.10;99.90
62339;DHT22;48368;53.406;6.214;2022-11-12T06:08:51;8.10;99.90
62339;DHT22;48368;53.406;6.214;2022-11-12T06:11:17;8.10;99.90
62339;DHT22;48368;53.406;6.214;2022-11-12T06:13:43;8.10;99.90
62339;DHT22;48368;53.406;6.214;2022-11-12T06:16:08;8.10;99.90
62339;DHT22;48368;53.406;6.214;2022-11-12T06:18:34;8.10;99.90
62339;DHT22;48368;53.406;6.214;2022-11-12T06:21:04;8.10;99.90
62339;DHT22;48368;53.406;6.214;2022-11-12T06:23:45;8.10;99.90
62339;DHT22;48368;53.406;6.214;2022-11-12T06:26:11;8.10;99.90
62339;DHT22;48368;53.406;6.214;2022-11-12T06:28:37;8.10;99.90
62339;DHT22;48368;53.406;6.214;2022-11-12T06:31:03;8.10;99.90
62339;DHT22;48368;53.406;6.214;2022-11-12T06:33:28;8.10;99.90
62339;DHT22;48368;53.406;6.214;2022-11-12T06:36:02;8.10;99.90
62339;DHT22;48368;53.406;6.214;2022-11-12T06:38:29;8.10;99.90
62339;DHT22;48368;53.406;6.214;2022-11-12T06:40:55;8.00;99.90
62339;DHT22;48368;53.406;6.214;2022-11-12T06:43:20;8.00;99.90
62339;DHT22;48368;53.406;6.214;2022-11-12T06:45:46;8.00;99.90
62339;DHT22;48368;53.406;6.214;2022-11-12T06:48:12;8.00;99.90
62339;DHT22;48368;53.406;6.214;2022-11-12T06:50:37;8.00;99.90
62339;DHT22;48368;53.406;6.214;2022-11-12T06:53:03;8.10;99.90
62339;DHT22;48368;53.406;6.214;2022-11-12T06:55:28;8.10;99.90
62339;DHT22;48368;53.406;6.214;2022-11-12T06:57:54;8.10;99.90
62339;DHT22;48368;53.406;6.214;2022-11-12T07:00:20;8.00;99.90
62339;DHT22;48368;53.406;6.214;2022-11-12T07:02:45;8.10;99.90
62339;DHT22;48368;53.406;6.214;2022-11-12T07:05:11;8.00;99.90
62339;DHT22;48368;53.406;6.214;2022-11-12T07:07:37;8.10;99.90
62339;DHT22;48368;53.406;6.214;2022-11-12T07:10:02;8.00;99.90
62339;DHT22;48368;53.406;6.214;2022-11-12T07:12:28;8.10;99.90
62339;DHT22;48368;53.406;6.214;2022-11-12T07:14:54;8.00;99.90
62339;DHT22;48368;53.406;6.214;2022-11-12T07:17:21;8.00;99.90
62339;DHT22;48368;53.406;6.214;2022-11-12T07:19:46;7.90;99.90
62339;DHT22;48368;53.406;6.214;2022-11-12T07:22:12;8.00;99.90
62339;DHT22;48368;53.406;6.214;2022-11-12T07:24:37;8.00;99.90
62339;DHT22;48368;53.406;6.214;2022-11-12T07:27:03;8.00;99.90
62339;DHT22;48368;53.406;6.214;2022-11-12T07:29:29;8.00;99.90
62339;DHT22;48368;53.406;6.214;2022-11-12T07:31:55;8.00;99.90
62339;DHT22;48368;53.406;6.214;2022-11-12T07:34:21;8.00;99.90
62339;DHT22;48368;53.406;6.214;2022-11-12T07:36:47;7.90;99.90
62339;DHT22;48368;53.406;6.214;2022-11-12T07:39:16;8.00;99.90
62339;DHT22;48368;53.406;6.214;2022-11-12T07:41:42;7.90;99.90
62339;DHT22;48368;53.406;6.214;2022-11-12T07:44:07;7.90;99.90
62339;DHT22;48368;53.406;6.214;2022-11-12T07:46:33;7.90;99.90
62339;DHT22;48368;53.406;6.214;2022-11-12T07:48:59;8.00;99.90
62339;DHT22;48368;53.406;6.214;2022-11-12T07:51:26;8.00;99.90
62339;DHT22;48368;53.406;6.214;2022-11-12T07:53:54;8.00;99.90
62339;DHT22;48368;53.406;6.214;2022-11-12T07:56:21;8.00;99.90
62339;DHT22;48368;53.406;6.214;2022-11-12T07:58:47;8.10;99.90
62339;DHT22;48368;53.406;6.214;2022-11-12T08:03:46;8.10;99.90
62339;DHT22;48368;53.406;6.214;2022-11-12T08:06:11;8.00;99.90
62339;DHT22;48368;53.406;6.214;2022-11-12T08:08:37;8.10;99.90
62339;DHT22;48368;53.406;6.214;2022-11-12T08:11:03;8.00;99.90
62339;DHT22;48368;53.406;6.214;2022-11-12T08:13:28;8.00;99.90
62339;DHT22;48368;53.406;6.214;2022-11-12T08:15:56;8.00;99.90
62339;DHT22;48368;53.406;6.214;2022-11-12T08:18:23;8.10;99.90
62339;DHT22;48368;53.406;6.214;2022-11-12T08:20:49;8.10;99.90
62339;DHT22;48368;53.406;6.214;2022-11-12T08:23:14;8.10;99.90
62339;DHT22;48368;53.406;6.214;2022-11-12T08:25:40;8.10;99.90
62339;DHT22;48368;53.406;6.214;2022-11-12T08:28:06;8.10;99.90
62339;DHT22;48368;53.406;6.214;2022-11-12T08:30:31;8.10;99.90
62339;DHT22;48368;53.406;6.214;2022-11-12T08:33:03;8.10;99.90
62339;DHT22;48368;53.406;6.214;2022-11-12T08:35:30;8.20;99.90
62339;DHT22;48368;53.406;6.214;2022-11-12T08:38:04;8.10;99.90
62339;DHT22;48368;53.406;6.214;2022-11-12T08:40:32;8.20;99.90
62339;DHT22;48368;53.406;6.214;2022-11-12T08:43:01;8.20;99.90
62339;DHT22;48368;53.406;6.214;2022-11-12T08:45:30;8.20;99.90
62339;DHT22;48368;53.406;6.214;2022-11-12T08:48:00;8.20;99.90
62339;DHT22;48368;53.406;6.214;2022-11-12T08:50:27;8.10;99.90
62339;DHT22;48368;53.406;6.214;2022-11-12T08:52:57;8.10;99.90
62339;DHT22;48368;53.406;6.214;2022-11-12T08:55:23;8.10;99.90
62339;DHT22;48368;53.406;6.214;2022-11-12T08:57:48;8.20;99.90
62339;DHT22;48368;53.406;6.214;2022-11-12T09:00:14;8.20;99.90
62339;DHT22;48368;53.406;6.214;2022-11-12T09:02:40;8.20;99.90
62339;DHT22;48368;53.406;6.214;2022-11-12T09:05:06;8.20;99.90
62339;DHT22;48368;53.406;6.214;2022-11-12T09:07:32;8.10;99.90
62339;DHT22;48368;53.406;6.214;2022-11-12T09:09:57;8.10;99.90
62339;DHT22;48368;53.406;6.214;2022-11-12T09:12:23;8.10;99.90
62339;DHT22;48368;53.406;6.214;2022-11-12T09:14:49;8.20;99.90
62339;DHT22;48368;53.406;6.214;2022-11-12T09:17:14;8.20;99.90
62339;DHT22;48368;53.406;6.214;2022-11-12T09:19:40;8.20;99.90
62339;DHT22;48368;53.406;6.214;2022-11-12T09:22:06;8.10;99.90
62339;DHT22;48368;53.406;6.214;2022-11-12T09:24:32;8.10;99.90
62339;DHT22;48368;53.406;6.214;2022-11-12T09:26:58;8.10;99.90
62339;DHT22;48368;53.406;6.214;2022-11-12T09:29:23;8.10;99.90
62339;DHT22;48368;53.406;6.214;2022-11-12T09:31:49;8.00;99.90
62339;DHT22;48368;53.406;6.214;2022-11-12T09:34:15;8.00;99.90
62339;DHT22;48368;53.406;6.214;2022-11-12T09:36:41;8.00;99.90
62339;DHT22;48368;53.406;6.214;2022-11-12T09:39:06;8.00;99.90
62339;DHT22;48368;53.406;6.214;2022-11-12T09:41:37;8.00;99.90
62339;DHT22;48368;53.406;6.214;2022-11-12T09:44:11;8.00;99.90
62339;DHT22;48368;53.406;6.214;2022-11-12T09:46:47;8.00;99.90
62339;DHT22;48368;53.406;6.214;2022-11-12T09:49:30;8.00;99.90
62339;DHT22;48368;53.406;6.214;2022-11-12T09:52:05;8.10;99.90
62339;DHT22;48368;53.406;6.214;2022-11-12T09:54:35;8.00;99.90
62339;DHT22;48368;53.406;6.214;2022-11-12T09:57:01;8.10;99.90
62339;DHT22;48368;53.406;6.214;2022-11-12T09:59:32;8.10;99.90
62339;DHT22;48368;53.406;6.214;2022-11-12T10:02:35;8.10;99.90
62339;DHT22;48368;53.406;6.214;2022-11-12T10:07:55;8.00;99.90
62339;DHT22;48368;53.406;6.214;2022-11-12T10:24:10;7.90;99.90
62339;DHT22;48368;53.406;6.214;2022-11-12T10:26:37;7.80;99.90
62339;DHT22;48368;53.406;6.214;2022-11-12T10:31:42;7.90;99.90
62339;DHT22;48368;53.406;6.214;2022-11-12T10:34:18;7.90;99.90
62339;DHT22;48368;53.406;6.214;2022-11-12T10:39:39;8.00;99.90
62339;DHT22;48368;53.406;6.214;2022-11-12T10:42:11;8.00;99.90
62339;DHT22;48368;53.406;6.214;2022-11-12T10:44:39;8.10;99.90
62339;DHT22;48368;53.406;6.214;2022-11-12T10:47:22;8.20;99.90
62339;DHT22;48368;53.406;6.214;2022-11-12T10:52:33;8.20;99.90
62339;DHT22;48368;53.406;6.214;2022-11-12T10:57:40;8.30;99.90
62339;DHT22;48368;53.406;6.214;2022-11-12T11:02:50;8.30;99.90
62339;DHT22;48368;53.406;6.214;2022-11-12T11:08:46;8.40;99.90
62339;DHT22;48368;53.406;6.214;2022-11-12T11:11:17;8.40;99.90
62339;DHT22;48368;53.406;6.214;2022-11-12T11:13:46;8.40;99.90
62339;DHT22;48368;53.406;6.214;2022-11-12T11:16:20;8.50;99.90
62339;DHT22;48368;53.406;6.214;2022-11-12T11:18:55;8.50;99.90
62339;DHT22;48368;53.406;6.214;2022-11-12T11:24:20;8.60;99.90
62339;DHT22;48368;53.406;6.214;2022-11-12T11:43:59;8.80;99.90
62339;DHT22;48368;53.406;6.214;2022-11-12T11:46:54;8.80;99.90
62339;DHT22;48368;53.406;6.214;2022-11-12T11:49:51;8.80;99.90
62339;DHT22;48368;53.406;6.214;2022-11-12T11:55:44;8.80;99.90
62339;DHT22;48368;53.406;6.214;2022-11-12T12:01:25;8.70;99.90
62339;DHT22;48368;53.406;6.214;2022-11-12T12:06:56;8.70;99.90
62339;DHT22;48368;53.406;6.214;2022-11-12T12:09:41;8.80;99.90
62339;DHT22;48368;53.406;6.214;2022-11-12T12:15:21;8.70;99.90
62339;DHT22;48368;53.406;6.214;2022-11-12T12:20:57;8.70;99.90
62339;DHT22;48368;53.406;6.214;2022-11-12T12:26:26;8.80;99.90
62339;DHT22;48368;53.406;6.214;2022-11-12T12:29:23;8.80;99.90
62339;DHT22;48368;53.406;6.214;2022-11-12T12:32:11;8.90;99.90
62339;DHT22;48368;53.406;6.214;2022-11-12T12:34:45;8.90;99.90
62339;DHT22;48368;53.406;6.214;2022-11-12T12:40:02;8.80;99.90
62339;DHT22;48368;53.406;6.214;2022-11-12T12:42:36;8.90;99.90
62339;DHT22;48368;53.406;6.214;2022-11-12T12:45:40;8.80;99.90
62339;DHT22;48368;53.406;6.214;2022-11-12T12:48:28;8.80;99.90
62339;DHT22;48368;53.406;6.214;2022-11-12T12:50:55;8.80;99.90
62339;DHT22;48368;53.406;6.214;2022-11-12T12:55:57;8.90;99.90
62339;DHT22;48368;53.406;6.214;2022-11-12T12:58:27;8.80;99.90
62339;DHT22;48368;53.406;6.214;2022-11-12T13:01:41;8.90;99.90
62339;DHT22;48368;53.406;6.214;2022-11-12T13:04:04;9.00;99.90
62339;DHT22;48368;53.406;6.214;2022-11-12T13:06:51;8.90;99.90
62339;DHT22;48368;53.406;6.214;2022-11-12T13:42:47;9.00;99.90
62339;DHT22;48368;53.406;6.214;2022-11-12T13:45:15;9.10;99.90
62339;DHT22;48368;53.406;6.214;2022-11-12T13:47:42;9.10;99.90
62339;DHT22;48368;53.406;6.214;2022-11-12T13:50:13;9.10;99.90
62339;DHT22;48368;53.406;6.214;2022-11-12T13:52:41;9.10;99.90
62339;DHT22;48368;53.406;6.214;2022-11-12T13:55:17;9.10;99.90
62339;DHT22;48368;53.406;6.214;2022-11-12T13:57:51;9.10;99.90
62339;DHT22;48368;53.406;6.214;2022-11-12T14:02:49;9.10;99.90
62339;DHT22;48368;53.406;6.214;2022-11-12T14:05:24;9.20;99.90
62339;DHT22;48368;53.406;6.214;2022-11-12T14:07:55;9.20;99.90
62339;DHT22;48368;53.406;6.214;2022-11-12T14:11:21;9.10;99.90
62339;DHT22;48368;53.406;6.214;2022-11-12T14:16:30;9.10;99.90
62339;DHT22;48368;53.406;6.214;2022-11-12T14:21:39;9.20;99.90
62339;DHT22;48368;53.406;6.214;2022-11-12T14:24:09;9.20;99.90
62339;DHT22;48368;53.406;6.214;2022-11-12T14:26:41;9.20;99.90
62339;DHT22;48368;53.406;6.214;2022-11-12T14:29:16;9.10;99.90
62339;DHT22;48368;53.406;6.214;2022-11-12T14:31:42;9.10;99.90
62339;DHT22;48368;53.406;6.214;2022-11-12T14:34:25;9.10;99.90
62339;DHT22;48368;53.406;6.214;2022-11-12T14:36:51;9.10;99.90
62339;DHT22;48368;53.406;6.214;2022-11-12T14:39:21;9.00;99.90
62339;DHT22;48368;53.406;6.214;2022-11-12T14:41:47;9.00;99.90
62339;DHT22;48368;53.406;6.214;2022-11-12T14:44:35;9.00;99.90
62339;DHT22;48368;53.406;6.214;2022-11-12T14:47:02;9.00;99.90
62339;DHT22;48368;53.406;6.214;2022-11-12T14:49:38;9.00;99.90
62339;DHT22;48368;53.406;6.214;2022-11-12T14:52:15;9.10;99.90
62339;DHT22;48368;53.406;6.214;2022-11-12T14:54:50;9.10;99.90
62339;DHT22;48368;53.406;6.214;2022-11-12T14:57:25;9.10;99.90
62339;DHT22;48368;53.406;6.214;2022-11-12T14:59:51;9.00;99.90
62339;DHT22;48368;53.406;6.214;2022-11-12T15:02:26;9.00;99.90
62339;DHT22;48368;53.406;6.214;2022-11-12T15:05:12;9.00;99.90
62339;DHT22;48368;53.406;6.214;2022-11-12T15:07:52;9.00;99.90
62339;DHT22;48368;53.406;6.214;2022-11-12T15:13:20;8.90;99.90
62339;DHT22;48368;53.406;6.214;2022-11-12T15:15:52;8.80;99.90
62339;DHT22;48368;53.406;6.214;2022-11-12T15:18:24;8.80;99.90
62339;DHT22;48368;53.406;6.214;2022-11-12T15:23:35;8.80;99.90
62339;DHT22;48368;53.406;6.214;2022-11-12T15:26:01;8.80;99.90
62339;DHT22;48368;53.406;6.214;2022-11-12T15:28:27;8.60;99.90
62339;DHT22;48368;53.406;6.214;2022-11-12T15:31:00;8.60;99.90
62339;DHT22;48368;53.406;6.214;2022-11-12T15:33:26;8.60;99.90
62339;DHT22;48368;53.406;6.214;2022-11-12T15:35:56;8.60;99.90
62339;DHT22;48368;53.406;6.214;2022-11-12T15:38:33;8.60;99.90
62339;DHT22;48368;53.406;6.214;2022-11-12T15:41:00;8.60;99.90
62339;DHT22;48368;53.406;6.214;2022-11-12T15:43:28;8.60;99.90
62339;DHT22;48368;53.406;6.214;2022-11-12T15:45:56;8.50;99.90
62339;DHT22;48368;53.406;6.214;2022-11-12T15:48:22;8.50;99.90
62339;DHT22;48368;53.406;6.214;2022-11-12T15:50:48;8.50;99.90
62339;DHT22;48368;53.406;6.214;2022-11-12T15:53:14;8.50;99.90
62339;DHT22;48368;53.406;6.214;2022-11-12T15:55:41;8.50;99.90
62339;DHT22;48368;53.406;6.214;2022-11-12T15:58:19;8.60;99.90
62339;DHT22;48368;53.406;6.214;2022-11-12T16:00:45;8.50;99.90
62339;DHT22;48368;53.406;6.214;2022-11-12T16:05:40;8.60;99.90
62339;DHT22;48368;53.406;6.214;2022-11-12T16:08:06;8.50;99.90
62339;DHT22;48368;53.406;6.214;2022-11-12T16:10:31;8.50;99.90
62339;DHT22;48368;53.406;6.214;2022-11-12T16:12:58;8.50;99.90
62339;DHT22;48368;53.406;6.214;2022-11-12T16:15:25;8.50;99.90
62339;DHT22;48368;53.406;6.214;2022-11-12T16:17:51;8.40;99.90
62339;DHT22;48368;53.406;6.214;2022-11-12T16:20:23;8.40;99.90
62339;DHT22;48368;53.406;6.214;2022-11-12T16:22:50;8.50;99.90
62339;DHT22;48368;53.406;6.214;2022-11-12T16:25:17;8.40;99.90
62339;DHT22;48368;53.406;6.214;2022-11-12T16:27:43;8.50;99.90
62339;DHT22;48368;53.406;6.214;2022-11-12T16:30:14;8.40;99.90
62339;DHT22;48368;53.406;6.214;2022-11-12T16:32:40;8.40;99.90
62339;DHT22;48368;53.406;6.214;2022-11-12T16:35:06;8.40;99.90
62339;DHT22;48368;53.406;6.214;2022-11-12T16:37:32;8.30;99.90
62339;DHT22;48368;53.406;6.214;2022-11-12T16:39:57;8.30;99.90
62339;DHT22;48368;53.406;6.214;2022-11-12T16:42:23;8.30;99.90
62339;DHT22;48368;53.406;6.214;2022-11-12T16:44:49;8.30;99.90
62339;DHT22;48368;53.406;6.214;2022-11-12T16:47:14;8.30;99.90
62339;DHT22;48368;53.406;6.214;2022-11-12T16:49:40;8.30;99.90
62339;DHT22;48368;53.406;6.214;2022-11-12T16:52:08;8.30;99.90
62339;DHT22;48368;53.406;6.214;2022-11-12T16:54:34;8.30;99.90
62339;DHT22;48368;53.406;6.214;2022-11-12T16:57:00;8.30;99.90
62339;DHT22;48368;53.406;6.214;2022-11-12T16:59:25;8.20;99.90
62339;DHT22;48368;53.406;6.214;2022-11-12T17:01:51;8.20;99.90
62339;DHT22;48368;53.406;6.214;2022-11-12T17:04:17;8.20;99.90
62339;DHT22;48368;53.406;6.214;2022-11-12T17:06:42;8.20;99.90
62339;DHT22;48368;53.406;6.214;2022-11-12T17:09:10;8.20;99.90
62339;DHT22;48368;53.406;6.214;2022-11-12T17:11:36;8.20;99.90
62339;DHT22;48368;53.406;6.214;2022-11-12T17:14:03;8.20;99.90
62339;DHT22;48368;53.406;6.214;2022-11-12T17:16:29;8.10;99.90
62339;DHT22;48368;53.406;6.214;2022-11-12T17:18:58;8.10;99.90
62339;DHT22;48368;53.406;6.214;2022-11-12T17:21:25;8.10;99.90
62339;DHT22;48368;53.406;6.214;2022-11-12T17:23:52;8.10;99.90
62339;DHT22;48368;53.406;6.214;2022-11-12T17:26:19;8.00;99.90
62339;DHT22;48368;53.406;6.214;2022-11-12T17:28:46;8.00;99.90
62339;DHT22;48368;53.406;6.214;2022-11-12T17:31:16;7.90;99.90
62339;DHT22;48368;53.406;6.214;2022-11-12T17:33:44;7.90;99.90
62339;DHT22;48368;53.406;6.214;2022-11-12T17:36:22;7.90;99.90
62339;DHT22;48368;53.406;6.214;2022-11-12T17:38:47;7.90;99.90
62339;DHT22;48368;53.406;6.214;2022-11-12T17:41:14;7.90;99.90
62339;DHT22;48368;53.406;6.214;2022-11-12T17:43:39;7.80;99.90
62339;DHT22;48368;53.406;6.214;2022-11-12T17:46:07;7.80;99.90
62339;DHT22;48368;53.406;6.214;2022-11-12T17:48:34;7.80;99.90
62339;DHT22;48368;53.406;6.214;2022-11-12T17:51:15;7.70;99.90
62339;DHT22;48368;53.406;6.214;2022-11-12T17:53:41;7.70;99.90
62339;DHT22;48368;53.406;6.214;2022-11-12T17:56:08;7.70;99.90
62339;DHT22;48368;53.406;6.214;2022-11-12T17:58:35;7.60;99.90
62339;DHT22;48368;53.406;6.214;2022-11-12T18:01:24;7.60;99.90
62339;DHT22;48368;53.406;6.214;2022-11-12T18:03:51;7.40;99.90
62339;DHT22;48368;53.406;6.214;2022-11-12T18:08:56;7.40;99.90